createdAt,value
2023-02-26T00:01:15.850Z,4.30
2023-02-26T00:03:42.789Z,4.30
2023-02-26T00:06:09.754Z,4.30
2023-02-26T00:08:36.738Z,4.30
2023-02-26T00:11:07.756Z,4.30
2023-02-26T00:13:36.338Z,4.30
2023-02-26T00:16:03.678Z,4.30
2023-02-26T00:18:30.718Z,4.30
2023-02-26T00:20:57.853Z,4.30
2023-02-26T00:23:24.790Z,4.30
2023-02-26T00:25:51.548Z,4.30
2023-02-26T00:28:18.632Z,4.30
2023-02-26T00:30:45.873Z,4.30
2023-02-26T00:33:12.870Z,4.30
2023-02-26T00:35:39.952Z,4.30
2023-02-26T00:38:12.220Z,4.30
2023-02-26T00:40:48.957Z,4.20
2023-02-26T00:43:22.870Z,4.20
2023-02-26T00:46:25.049Z,4.20
2023-02-26T00:49:28.167Z,4.20
2023-02-26T00:51:59.154Z,4.10
2023-02-26T00:54:28.065Z,4.10
2023-02-26T00:56:56.013Z,4.20
2023-02-26T00:59:23.855Z,4.10
2023-02-26T01:01:51.978Z,4.00
2023-02-26T01:04:22.597Z,4.00
2023-02-26T01:06:53.585Z,4.00
2023-02-26T01:09:33.366Z,4.00
2023-02-26T01:12:03.687Z,3.90
2023-02-26T01:14:32.570Z,3.90
2023-02-26T01:17:03.083Z,3.90
2023-02-26T01:19:54.421Z,3.90
2023-02-26T01:22:33.352Z,3.90
2023-02-26T01:25:05.519Z,3.80
2023-02-26T01:27:33.027Z,3.80
2023-02-26T01:30:00.483Z,3.80
2023-02-26T01:32:42.312Z,3.80
2023-02-26T01:35:36.938Z,3.70
2023-02-26T01:38:07.971Z,3.70
2023-02-26T01:40:52.871Z,3.70
2023-02-26T01:43:47.876Z,3.70
2023-02-26T01:46:36.821Z,3.70
2023-02-26T01:49:04.887Z,3.70
2023-02-26T01:51:53.409Z,3.60
2023-02-26T01:54:40.075Z,3.60
2023-02-26T01:57:15.984Z,3.60
2023-02-26T01:59:46.790Z,3.50
2023-02-26T02:02:20.543Z,3.50
2023-02-26T02:04:49.397Z,3.50
2023-02-26T02:07:17.520Z,3.50
2023-02-26T02:09:47.590Z,3.50
2023-02-26T02:12:34.009Z,3.40
2023-02-26T02:15:13.403Z,3.40
2023-02-26T02:18:11.686Z,3.40
2023-02-26T02:20:50.440Z,3.40
2023-02-26T02:23:27.106Z,3.40
2023-02-26T02:26:18.929Z,3.40
2023-02-26T02:29:08.900Z,3.30
2023-02-26T02:31:49.840Z,3.30
2023-02-26T02:34:26.997Z,3.20
2023-02-26T02:37:17.372Z,3.20
2023-02-26T02:39:52.987Z,3.20
2023-02-26T02:42:26.945Z,3.20
2023-02-26T02:44:58.745Z,3.20
2023-02-26T02:47:28.271Z,3.20
2023-02-26T02:50:01.518Z,3.10
2023-02-26T02:52:50.681Z,3.10
2023-02-26T02:55:26.952Z,3.10
2023-02-26T02:58:04.741Z,3.10
2023-02-26T03:00:36.353Z,3.00
2023-02-26T03:03:36.610Z,3.00
2023-02-26T03:06:04.064Z,3.00
2023-02-26T03:08:41.591Z,3.00
2023-02-26T03:11:09.425Z,2.90
2023-02-26T03:13:39.400Z,2.90
2023-02-26T03:16:30.042Z,2.90
2023-02-26T03:19:15.598Z,2.90
2023-02-26T03:21:54.912Z,2.90
2023-02-26T03:25:09.527Z,2.90
2023-02-26T03:27:42.714Z,2.80
2023-02-26T03:30:16.675Z,2.80
2023-02-26T03:32:59.181Z,2.80
2023-02-26T03:35:44.913Z,2.80
2023-02-26T03:38:45.683Z,2.80
2023-02-26T03:41:17.954Z,2.80
2023-02-26T03:44:05.276Z,2.70
2023-02-26T03:46:48.426Z,2.70
2023-02-26T03:49:24.270Z,2.70
2023-02-26T03:51:52.313Z,2.60
2023-02-26T03:54:45.403Z,2.70
2023-02-26T03:57:32.844Z,2.70
2023-02-26T04:00:17.849Z,2.60
2023-02-26T04:02:55.223Z,2.60
2023-02-26T04:05:26.494Z,2.60
2023-02-26T04:07:54.211Z,2.60
2023-02-26T04:10:29.624Z,2.60
2023-02-26T04:13:02.566Z,2.60
2023-02-26T04:15:29.620Z,2.60
2023-02-26T04:17:56.396Z,2.60
2023-02-26T04:20:23.454Z,2.60
2023-02-26T04:22:50.243Z,2.50
2023-02-26T04:25:20.651Z,2.50
2023-02-26T04:27:47.648Z,2.50
2023-02-26T04:30:14.741Z,2.50
2023-02-26T04:32:41.471Z,2.50
2023-02-26T04:35:10.870Z,2.50
2023-02-26T04:37:37.674Z,2.50
2023-02-26T04:40:05.016Z,2.50
2023-02-26T04:42:32.075Z,2.50
2023-02-26T04:44:59.100Z,2.50
2023-02-26T04:47:27.566Z,2.50
2023-02-26T04:49:54.558Z,2.50
2023-02-26T04:52:21.528Z,2.50
2023-02-26T04:54:48.944Z,2.50
2023-02-26T04:57:16.477Z,2.50
2023-02-26T04:59:44.407Z,2.50
2023-02-26T05:02:12.782Z,2.40
2023-02-26T05:04:41.788Z,2.40
2023-02-26T05:07:08.642Z,2.40
2023-02-26T05:09:35.793Z,2.40
2023-02-26T05:12:02.556Z,2.40
2023-02-26T05:14:29.697Z,2.40
2023-02-26T05:16:57.927Z,2.40
2023-02-26T05:19:24.776Z,2.40
2023-02-26T05:21:51.910Z,2.40
2023-02-26T05:24:18.739Z,2.40
2023-02-26T05:26:46.751Z,2.30
2023-02-26T05:29:13.592Z,2.30
2023-02-26T05:31:40.432Z,2.30
2023-02-26T05:34:07.376Z,2.30
2023-02-26T05:36:34.194Z,2.30
2023-02-26T05:39:01.027Z,2.30
2023-02-26T05:41:27.811Z,2.30
2023-02-26T05:43:54.599Z,2.20
2023-02-26T05:46:21.426Z,2.20
2023-02-26T05:48:48.250Z,2.20
2023-02-26T05:51:15.018Z,2.20
2023-02-26T05:53:41.801Z,2.20
2023-02-26T05:56:08.589Z,2.20
2023-02-26T05:58:35.451Z,2.20
2023-02-26T06:01:02.178Z,2.20
2023-02-26T06:03:29.096Z,2.20
2023-02-26T06:05:55.946Z,2.20
2023-02-26T06:08:22.882Z,2.10
2023-02-26T06:10:51.367Z,2.10
2023-02-26T06:13:18.506Z,2.10
2023-02-26T06:15:45.259Z,2.10
2023-02-26T06:18:12.076Z,2.10
2023-02-26T06:20:38.915Z,2.10
2023-02-26T06:23:05.691Z,2.10
2023-02-26T06:25:32.539Z,2.10
2023-02-26T06:27:59.296Z,2.10
2023-02-26T06:30:26.081Z,2.10
2023-02-26T06:32:52.891Z,2.10
2023-02-26T06:35:19.623Z,2.00
2023-02-26T06:37:46.443Z,2.00
2023-02-26T06:40:13.514Z,2.00
2023-02-26T06:42:40.330Z,2.00
2023-02-26T06:45:07.869Z,2.00
2023-02-26T06:47:34.634Z,2.00
2023-02-26T06:50:02.924Z,2.00
2023-02-26T06:52:30.164Z,2.00
2023-02-26T06:54:57.079Z,2.00
2023-02-26T06:57:23.924Z,2.00
2023-02-26T06:59:51.764Z,2.00
2023-02-26T07:02:21.223Z,2.00
2023-02-26T07:04:48.034Z,2.00
2023-02-26T07:07:16.082Z,2.00
2023-02-26T07:09:45.610Z,2.10
2023-02-26T07:12:12.917Z,2.10
2023-02-26T07:14:40.246Z,2.10
2023-02-26T07:17:07.496Z,2.10
2023-02-26T07:19:34.305Z,2.10
2023-02-26T07:22:01.309Z,2.20
2023-02-26T07:24:28.153Z,2.30
2023-02-26T07:26:54.918Z,2.50
2023-02-26T07:29:21.675Z,2.70
2023-02-26T07:31:48.501Z,2.90
2023-02-26T07:34:15.358Z,3.20
2023-02-26T07:36:42.137Z,3.40
2023-02-26T07:39:08.934Z,3.60
2023-02-26T07:41:35.720Z,3.80
2023-02-26T07:44:02.538Z,3.90
2023-02-26T07:46:29.562Z,4.00
2023-02-26T07:48:56.439Z,4.10
2023-02-26T07:51:23.572Z,4.10
2023-02-26T07:53:50.477Z,4.10
2023-02-26T07:56:17.248Z,4.10
2023-02-26T07:58:44.068Z,4.10
2023-02-26T08:01:10.794Z,4.10
2023-02-26T08:03:37.507Z,4.10
2023-02-26T08:06:05.299Z,4.00
2023-02-26T08:08:33.329Z,4.00
2023-02-26T08:11:00.959Z,3.90
2023-02-26T08:13:28.028Z,3.90
2023-02-26T08:15:54.721Z,3.90
2023-02-26T08:18:21.640Z,3.90
2023-02-26T08:20:52.020Z,3.90
2023-02-26T08:23:19.276Z,4.00
2023-02-26T08:25:46.174Z,4.10
2023-02-26T08:28:13.432Z,4.30
2023-02-26T08:30:40.213Z,4.40
2023-02-26T08:33:06.905Z,4.60
2023-02-26T08:35:33.545Z,4.90
2023-02-26T08:38:00.446Z,5.10
2023-02-26T08:40:27.159Z,5.40
2023-02-26T08:42:53.779Z,5.70
2023-02-26T08:45:20.569Z,5.90
2023-02-26T08:47:56.045Z,6.20
2023-02-26T08:50:24.737Z,6.50
2023-02-26T08:52:51.583Z,6.80
2023-02-26T08:55:18.383Z,7.00
2023-02-26T08:57:45.187Z,7.30
2023-02-26T09:00:12.906Z,7.50
2023-02-26T09:02:39.805Z,7.60
2023-02-26T09:05:06.796Z,8.00
2023-02-26T09:07:33.501Z,8.20
2023-02-26T09:10:00.296Z,8.40
2023-02-26T09:12:27.185Z,8.60
2023-02-26T09:14:53.821Z,8.80
2023-02-26T09:17:21.581Z,8.90
2023-02-26T09:19:48.392Z,9.00
2023-02-26T09:22:15.068Z,9.10
2023-02-26T09:24:41.893Z,9.10
2023-02-26T09:27:08.594Z,9.20
2023-02-26T09:29:35.329Z,9.30
2023-02-26T09:32:02.161Z,9.40
2023-02-26T09:34:29.040Z,9.50
2023-02-26T09:36:55.678Z,9.60
2023-02-26T09:39:24.419Z,9.60
2023-02-26T09:41:54.599Z,9.70
2023-02-26T09:44:27.252Z,9.80
2023-02-26T09:47:02.531Z,9.90
2023-02-26T09:49:51.143Z,10.00
2023-02-26T09:52:35.750Z,10.10
2023-02-26T09:55:29.842Z,10.30
2023-02-26T09:58:02.940Z,10.50
2023-02-26T10:00:38.293Z,10.60
2023-02-26T10:03:10.931Z,10.80
2023-02-26T10:05:53.869Z,10.90
2023-02-26T10:08:26.417Z,11.10
2023-02-26T10:11:17.537Z,11.20
2023-02-26T10:13:57.614Z,11.30
2023-02-26T10:16:29.802Z,11.20
2023-02-26T10:19:13.987Z,11.20
2023-02-26T10:21:46.647Z,11.10
2023-02-26T10:24:22.436Z,11.00
2023-02-26T10:27:05.208Z,10.90
2023-02-26T10:29:38.457Z,10.70
2023-02-26T10:32:46.795Z,10.60
2023-02-26T10:35:18.276Z,10.40
2023-02-26T10:38:02.874Z,10.20
2023-02-26T10:40:42.453Z,10.00
2023-02-26T10:43:33.834Z,9.80
2023-02-26T10:46:06.224Z,9.50
2023-02-26T10:49:02.691Z,9.30
2023-02-26T10:51:35.764Z,9.20
2023-02-26T10:54:29.771Z,9.00
2023-02-26T10:56:57.019Z,8.80
2023-02-26T10:59:24.077Z,8.60
2023-02-26T11:01:52.508Z,8.50
2023-02-26T11:04:26.166Z,8.40
2023-02-26T11:06:59.282Z,8.30
2023-02-26T11:09:38.768Z,8.20
2023-02-26T11:12:15.641Z,8.20
2023-02-26T11:14:43.284Z,8.20
2023-02-26T11:17:23.066Z,8.20
2023-02-26T11:19:59.734Z,8.20
2023-02-26T11:22:31.167Z,8.10
2023-02-26T11:24:58.981Z,8.10
2023-02-26T11:27:36.786Z,8.00
2023-02-26T11:30:15.483Z,7.90
2023-02-26T11:32:45.498Z,7.90
2023-02-26T11:35:16.387Z,7.80
2023-02-26T11:37:50.145Z,7.70
2023-02-26T11:40:24.425Z,7.70
2023-02-26T11:42:59.172Z,7.60
2023-02-26T11:45:26.417Z,7.60
2023-02-26T11:48:02.298Z,7.60
2023-02-26T11:50:30.593Z,7.60
2023-02-26T11:53:04.991Z,7.60
2023-02-26T11:55:45.720Z,7.50
2023-02-26T11:58:22.155Z,7.50
2023-02-26T12:00:52.381Z,7.60
2023-02-26T12:03:23.558Z,7.50
2023-02-26T12:05:53.501Z,7.50
2023-02-26T12:08:39.186Z,7.60
2023-02-26T12:11:27.935Z,7.60
2023-02-26T12:14:09.984Z,7.60
2023-02-26T12:16:49.689Z,7.70
2023-02-26T12:19:42.070Z,7.70
2023-02-26T12:22:08.708Z,7.70
2023-02-26T12:24:44.884Z,7.80
2023-02-26T12:27:45.321Z,7.80
2023-02-26T12:30:23.604Z,7.80
2023-02-26T12:33:01.887Z,7.80
2023-02-26T12:35:49.731Z,7.70
2023-02-26T12:38:24.406Z,7.70
2023-02-26T12:41:22.846Z,7.80
2023-02-26T12:43:58.082Z,7.80
2023-02-26T12:46:42.672Z,7.80
2023-02-26T12:49:23.578Z,7.80
2023-02-26T12:52:21.128Z,7.80
2023-02-26T12:55:14.487Z,7.80
2023-02-26T12:58:10.361Z,7.80
2023-02-26T13:00:52.156Z,7.80
2023-02-26T13:03:54.965Z,7.80
2023-02-26T13:06:40.415Z,7.80
2023-02-26T13:09:24.990Z,7.80
2023-02-26T13:12:33.329Z,7.90
2023-02-26T13:15:02.784Z,7.90
2023-02-26T13:17:50.153Z,7.90
2023-02-26T13:20:28.082Z,7.90
2023-02-26T13:22:56.528Z,7.90
2023-02-26T13:25:52.465Z,7.90
2023-02-26T13:28:30.793Z,7.90
2023-02-26T13:30:59.769Z,7.90
2023-02-26T13:33:33.512Z,7.90
2023-02-26T13:36:01.739Z,7.90
2023-02-26T13:39:04.811Z,7.80
2023-02-26T13:41:50.546Z,7.80
2023-02-26T13:44:59.867Z,7.80
2023-02-26T13:47:35.900Z,7.80
2023-02-26T13:50:16.331Z,7.80
2023-02-26T13:53:02.817Z,7.80
2023-02-26T13:55:47.536Z,7.80
2023-02-26T13:58:23.417Z,7.80
2023-02-26T14:01:18.802Z,7.80
2023-02-26T14:03:51.839Z,7.80
2023-02-26T14:06:40.323Z,7.80
2023-02-26T14:09:36.489Z,7.70
2023-02-26T14:12:18.245Z,7.70
2023-02-26T14:15:00.274Z,7.70
2023-02-26T14:17:37.901Z,7.70
2023-02-26T14:20:19.369Z,7.70
2023-02-26T14:23:09.909Z,7.70
2023-02-26T14:25:38.704Z,7.70
2023-02-26T14:28:24.911Z,7.70
2023-02-26T14:31:14.158Z,7.70
2023-02-26T14:33:46.174Z,7.70
2023-02-26T14:36:29.218Z,7.70
2023-02-26T14:38:58.236Z,7.70
2023-02-26T14:41:33.656Z,7.70
2023-02-26T14:44:15.953Z,7.70
2023-02-26T14:46:45.342Z,7.70
2023-02-26T14:49:24.888Z,7.70
2023-02-26T14:52:19.689Z,7.70
2023-02-26T14:55:15.373Z,7.70
2023-02-26T14:58:25.168Z,7.70
2023-02-26T15:01:20.929Z,7.70
2023-02-26T15:04:03.494Z,7.70
2023-02-26T15:06:54.064Z,7.70
2023-02-26T15:09:32.777Z,7.80
2023-02-26T15:12:27.739Z,7.80
2023-02-26T15:15:19.171Z,7.80
2023-02-26T15:17:51.859Z,7.80
2023-02-26T15:20:56.230Z,7.80
2023-02-26T15:23:26.018Z,7.80
2023-02-26T15:25:53.383Z,7.80
2023-02-26T15:28:30.977Z,7.80
2023-02-26T15:31:00.771Z,7.80
2023-02-26T15:33:29.399Z,7.80
2023-02-26T15:35:57.915Z,7.80
2023-02-26T15:38:25.620Z,7.80
2023-02-26T15:40:56.422Z,7.80
2023-02-26T15:43:28.327Z,7.80
2023-02-26T15:45:57.376Z,7.80
2023-02-26T15:48:31.319Z,7.70
2023-02-26T15:51:02.335Z,7.80
2023-02-26T15:53:41.128Z,7.70
2023-02-26T15:56:13.178Z,7.70
2023-02-26T15:58:59.568Z,7.70
2023-02-26T16:01:28.855Z,7.70
2023-02-26T16:04:02.465Z,7.70
2023-02-26T16:06:31.375Z,7.60
2023-02-26T16:08:59.791Z,7.60
2023-02-26T16:11:33.272Z,7.60
2023-02-26T16:14:00.953Z,7.60
2023-02-26T16:16:43.872Z,7.60
2023-02-26T16:19:16.638Z,7.60
2023-02-26T16:21:43.774Z,7.50
2023-02-26T16:24:17.047Z,7.50
2023-02-26T16:26:53.769Z,7.50
2023-02-26T16:29:27.979Z,7.50
2023-02-26T16:31:57.126Z,7.40
2023-02-26T16:34:44.299Z,7.40
2023-02-26T16:37:24.106Z,7.40
2023-02-26T16:40:15.492Z,7.30
2023-02-26T16:42:51.780Z,7.30
2023-02-26T16:45:37.042Z,7.30
2023-02-26T16:48:22.171Z,7.20
2023-02-26T16:51:06.056Z,7.20
2023-02-26T16:53:48.399Z,7.10
2023-02-26T16:56:31.511Z,7.10
2023-02-26T16:59:12.211Z,7.10
2023-02-26T17:01:48.824Z,7.10
2023-02-26T17:04:18.154Z,7.00
2023-02-26T17:06:45.161Z,7.00
2023-02-26T17:09:39.948Z,6.90
2023-02-26T17:12:15.078Z,6.90
2023-02-26T17:14:44.638Z,6.90
2023-02-26T17:17:11.711Z,6.80
2023-02-26T17:19:38.547Z,6.80
2023-02-26T17:22:11.759Z,6.80
2023-02-26T17:24:40.938Z,6.80
2023-02-26T17:27:13.814Z,6.70
2023-02-26T17:29:43.994Z,6.70
2023-02-26T17:32:23.384Z,6.70
2023-02-26T17:34:51.581Z,6.60
2023-02-26T17:37:19.322Z,6.60
2023-02-26T17:39:46.652Z,6.60
2023-02-26T17:42:16.389Z,6.60
2023-02-26T17:44:43.320Z,6.60
2023-02-26T17:47:23.997Z,6.60
2023-02-26T17:49:50.750Z,6.60
2023-02-26T17:52:17.834Z,6.60
2023-02-26T17:54:44.930Z,6.50
2023-02-26T17:57:17.204Z,6.50
2023-02-26T17:59:44.125Z,6.50
2023-02-26T18:02:28.105Z,6.50
2023-02-26T18:04:54.971Z,6.50
2023-02-26T18:07:23.345Z,6.50
2023-02-26T18:09:50.455Z,6.50
2023-02-26T18:12:22.135Z,6.40
2023-02-26T18:14:49.305Z,6.40
2023-02-26T18:17:23.013Z,6.40
2023-02-26T18:19:49.921Z,6.40
2023-02-26T18:22:19.263Z,6.40
2023-02-26T18:24:46.269Z,6.40
2023-02-26T18:27:19.347Z,6.30
2023-02-26T18:29:46.795Z,6.30
2023-02-26T18:32:15.436Z,6.30
2023-02-26T18:34:42.936Z,6.30
2023-02-26T18:37:13.950Z,6.30
2023-02-26T18:39:40.784Z,6.30
2023-02-26T18:42:07.657Z,6.30
2023-02-26T18:44:34.330Z,6.20
2023-02-26T18:47:01.006Z,6.20
2023-02-26T18:49:27.827Z,6.20
2023-02-26T18:51:54.836Z,6.20
2023-02-26T18:54:21.622Z,6.10
2023-02-26T18:56:48.402Z,6.10
2023-02-26T18:59:15.116Z,6.10
2023-02-26T19:01:42.380Z,6.10
2023-02-26T19:04:09.066Z,6.10
2023-02-26T19:06:35.816Z,6.10
2023-02-26T19:09:04.435Z,6.10
2023-02-26T19:11:31.363Z,6.00
2023-02-26T19:13:58.389Z,6.00
2023-02-26T19:16:25.058Z,6.00
2023-02-26T19:18:51.762Z,6.10
2023-02-26T19:21:19.192Z,6.00
2023-02-26T19:23:46.008Z,6.00
2023-02-26T19:26:12.690Z,6.00
2023-02-26T19:28:39.506Z,6.00
2023-02-26T19:31:06.941Z,6.00
2023-02-26T19:33:33.782Z,6.00
2023-02-26T19:36:00.619Z,6.00
2023-02-26T19:38:27.491Z,5.90
2023-02-26T19:40:54.338Z,5.90
2023-02-26T19:43:23.217Z,6.30
2023-02-26T19:45:50.048Z,5.90
2023-02-26T19:48:16.888Z,5.90
2023-02-26T19:50:43.784Z,5.90
2023-02-26T19:53:10.512Z,5.90
2023-02-26T19:55:37.365Z,5.90
2023-02-26T19:58:04.254Z,5.90
2023-02-26T20:00:31.069Z,5.90
2023-02-26T20:02:57.934Z,5.90
2023-02-26T20:05:24.814Z,5.80
2023-02-26T20:07:51.855Z,5.90
2023-02-26T20:10:19.024Z,5.80
2023-02-26T20:12:46.105Z,5.80
2023-02-26T20:15:13.193Z,5.80
2023-02-26T20:17:40.003Z,5.80
2023-02-26T20:20:08.251Z,5.80
2023-02-26T20:22:35.341Z,5.80
2023-02-26T20:25:02.220Z,5.80
2023-02-26T20:27:29.086Z,5.70
2023-02-26T20:29:55.914Z,5.70
2023-02-26T20:32:23.592Z,5.70
2023-02-26T20:34:51.997Z,5.70
2023-02-26T20:37:18.756Z,5.70
2023-02-26T20:39:46.201Z,5.60
2023-02-26T20:42:13.207Z,5.60
2023-02-26T20:44:40.450Z,5.60
2023-02-26T20:47:07.663Z,5.60
2023-02-26T20:49:35.198Z,5.60
2023-02-26T20:52:01.966Z,5.60
2023-02-26T20:54:28.982Z,5.60
2023-02-26T20:56:55.861Z,5.70
2023-02-26T20:59:22.611Z,5.50
2023-02-26T21:01:51.455Z,5.50
2023-02-26T21:04:19.577Z,5.50
2023-02-26T21:06:46.450Z,5.50
2023-02-26T21:09:13.578Z,5.50
2023-02-26T21:11:40.729Z,5.50
2023-02-26T21:14:08.642Z,5.50
2023-02-26T21:16:36.580Z,5.40
2023-02-26T21:19:04.469Z,5.40
2023-02-26T21:21:31.653Z,5.40
2023-02-26T21:23:58.626Z,5.40
2023-02-26T21:26:27.274Z,5.40
2023-02-26T21:28:54.161Z,5.40
2023-02-26T21:31:21.928Z,5.40
2023-02-26T21:33:49.100Z,5.40
2023-02-26T21:36:16.152Z,5.40
2023-02-26T21:38:43.018Z,5.30
2023-02-26T21:41:09.805Z,5.30
2023-02-26T21:43:36.616Z,5.30
2023-02-26T21:46:05.070Z,5.30
2023-02-26T21:48:32.002Z,5.30
2023-02-26T21:50:59.679Z,5.20
2023-02-26T21:53:27.227Z,5.20
2023-02-26T21:55:55.203Z,5.20
2023-02-26T21:58:22.203Z,5.20
2023-02-26T22:00:49.427Z,5.20
2023-02-26T22:03:16.410Z,5.10
2023-02-26T22:05:43.538Z,5.10
2023-02-26T22:08:10.467Z,5.10
2023-02-26T22:10:37.350Z,5.10
2023-02-26T22:13:04.171Z,5.10
2023-02-26T22:15:31.011Z,5.10
2023-02-26T22:17:57.762Z,5.10
2023-02-26T22:20:24.545Z,5.10
2023-02-26T22:22:51.833Z,5.00
2023-02-26T22:25:18.731Z,5.00
2023-02-26T22:27:45.478Z,5.00
2023-02-26T22:30:12.764Z,5.00
2023-02-26T22:32:40.131Z,5.00
2023-02-26T22:35:07.639Z,5.00
2023-02-26T22:37:34.385Z,5.00
2023-02-26T22:40:01.095Z,5.00
2023-02-26T22:42:27.932Z,4.90
2023-02-26T22:44:54.709Z,4.90
2023-02-26T22:47:21.673Z,5.00
2023-02-26T22:49:48.876Z,5.00
2023-02-26T22:52:15.716Z,4.90
2023-02-26T22:54:42.503Z,4.90
2023-02-26T22:57:09.228Z,4.80
2023-02-26T22:59:36.045Z,4.80
2023-02-26T23:02:02.871Z,4.80
2023-02-26T23:04:29.627Z,4.80
2023-02-26T23:06:56.434Z,4.80
2023-02-26T23:09:23.269Z,4.70
2023-02-26T23:11:50.077Z,4.70
2023-02-26T23:14:17.553Z,4.70
2023-02-26T23:16:44.473Z,4.70
2023-02-26T23:19:11.759Z,4.70
2023-02-26T23:21:38.498Z,4.60
2023-02-26T23:24:05.529Z,4.60
2023-02-26T23:26:32.937Z,4.60
2023-02-26T23:28:59.758Z,4.50
2023-02-26T23:31:27.050Z,4.50
2023-02-26T23:33:54.103Z,4.50
2023-02-26T23:36:20.923Z,4.50
2023-02-26T23:38:47.653Z,4.50
2023-02-26T23:41:14.477Z,4.50
2023-02-26T23:43:41.304Z,4.40
2023-02-26T23:46:08.281Z,4.40
2023-02-26T23:48:35.044Z,4.40
2023-02-26T23:51:01.981Z,4.40
2023-02-26T23:53:28.804Z,4.40
2023-02-26T23:55:58.932Z,4.40
2023-02-26T23:58:27.312Z,4.30
